Time;durP1;ratioP1;P1;durP2;ratioP2;P2;SDS_P1;SDS_P2;PMS_P1;PMS_P2;Temp;Humidity;BMP_temperature;BMP_pressure;BME280_temperature;BME280_humidity;BME280_pressure;Samples;Min_cycle;Max_cycle;Signal;HPM_P1;HPM_P2
2024/04/05 00:01:32;;;;;;;5.55;1.83;;;;;;;13.06;81.62;100673.44;5005729;28;20069;-70
2024/04/05 00:04:03;;;;;;;5.10;2.08;;;;;;;13.11;82.06;100691.72;5010742;28;20042;-70
2024/04/05 00:06:29;;;;;;;5.30;2.30;;;;;;;13.19;81.85;100689.34;5010489;28;20030;-70
2024/04/05 00:08:54;;;;;;;5.72;2.70;;;;;;;13.24;80.92;100686.03;5010892;28;20504;-70
2024/04/05 00:11:20;;;;;;;11.40;2.30;;;;;;;13.04;81.20;100690.63;5007385;28;20022;-70
2024/04/05 00:13:45;;;;;;;8.27;2.38;;;;;;;12.92;82.63;100680.78;5027669;28;20026;-69
2024/04/05 00:16:11;;;;;;;7.30;2.40;;;;;;;12.70;83.90;100694.78;5013310;28;20104;-70
2024/04/05 00:18:36;;;;;;;7.43;2.45;;;;;;;12.37;84.89;100666.06;5013233;28;20084;-70
2024/04/05 00:21:06;;;;;;;6.07;2.83;;;;;;;12.50;85.60;100707.09;5012915;28;20040;-70
2024/04/05 00:23:34;;;;;;;8.18;3.28;;;;;;;12.40;86.18;100694.63;5012941;28;20499;-69
2024/04/05 00:26:04;;;;;;;8.30;3.65;;;;;;;12.46;85.96;100703.50;5013293;28;20109;-69
2024/04/05 00:28:35;;;;;;;5.55;3.33;;;;;;;12.60;85.44;100690.16;5010224;28;20469;-70
2024/04/05 00:31:01;;;;;;;9.55;3.58;;;;;;;12.66;84.87;100668.72;5010131;28;20030;-69
2024/04/05 00:33:27;;;;;;;10.68;3.40;;;;;;;12.87;83.73;100686.66;5012053;28;20034;-69
2024/04/05 00:35:57;;;;;;;13.00;3.78;;;;;;;12.93;82.60;100686.84;5010275;28;20087;-70
2024/04/05 00:38:24;;;;;;;;;;;;;;;12.98;81.38;100687.84;5012177;28;20022;-70
2024/04/05 00:40:50;;;;;;;7.50;2.80;;;;;;;12.72;80.57;100672.41;5009040;28;19987;-70
2024/04/05 00:43:16;;;;;;;38.00;6.13;;;;;;;12.64;80.88;100668.69;5011813;28;20096;-69
2024/04/05 00:45:46;;;;;;;6.68;2.33;;;;;;;12.77;80.46;100685.47;5010080;28;20018;-70
2024/04/05 00:48:14;;;;;;;5.53;2.75;;;;;;;12.54;81.70;100685.63;5012126;28;20042;-70
2024/04/05 00:50:40;;;;;;;6.57;2.33;;;;;;;12.52;81.33;100678.66;5000644;28;20029;-70
2024/04/05 00:53:10;;;;;;;5.75;2.35;;;;;;;12.36;81.21;100687.63;5011624;28;20111;-71
2024/04/05 00:55:37;;;;;;;7.15;2.80;;;;;;;12.30;80.93;100688.31;5011184;28;20496;-70
2024/04/05 00:58:04;;;;;;;5.93;2.58;;;;;;;12.01;81.25;100684.72;5009818;28;20049;-70
2024/04/05 01:00:31;;;;;;;5.18;2.50;;;;;;;11.71;81.06;100639.69;5020308;28;20095;-70
2024/04/05 01:02:57;;;;;;;4.43;2.95;;;;;;;12.01;80.49;100685.59;5055113;28;20416;-70
2024/04/05 01:05:23;;;;;;;8.30;3.33;;;;;;;11.76;81.82;100684.72;5030552;28;20523;-70
2024/04/05 01:07:51;;;;;;;6.40;3.50;;;;;;;11.27;84.58;100688.09;5030782;28;20029;-70
2024/04/05 01:10:17;;;;;;;4.88;3.10;;;;;;;10.83;85.00;100673.53;5030651;28;20040;-70
2024/04/05 01:12:42;;;;;;;7.18;3.03;;;;;;;10.58;86.81;100665.63;5031256;28;20033;-70
2024/04/05 01:15:08;;;;;;;4.80;2.78;;;;;;;10.81;88.81;100711.31;5030394;28;20033;-70
2024/04/05 01:17:35;;;;;;;6.95;3.10;;;;;;;11.01;88.33;100700.88;5030611;28;20029;-70
2024/04/05 01:20:04;;;;;;;5.43;2.75;;;;;;;11.03;88.69;100707.00;5020662;28;20120;-70
2024/04/05 01:22:44;;;;;;;7.45;2.78;;;;;;;11.11;88.99;100712.47;5030414;28;20482;-70
2024/04/05 01:25:09;;;;;;;7.15;3.13;;;;;;;11.19;88.60;100672.31;5029069;28;20148;-70
2024/04/05 01:27:35;;;;;;;5.88;2.85;;;;;;;11.40;87.52;100697.19;5030293;28;20041;-70
2024/04/05 01:30:01;;;;;;;5.38;2.30;;;;;;;11.23;87.80;100679.34;5027192;28;20035;-70
2024/04/05 01:32:26;;;;;;;5.90;2.70;;;;;;;11.47;87.01;100707.78;5028634;28;20830;-70
2024/04/05 01:34:52;;;;;;;7.10;2.38;;;;;;;11.38;86.82;100675.56;5031151;28;20106;-70
2024/04/05 01:37:18;;;;;;;4.85;2.45;;;;;;;11.42;86.32;100669.69;5031807;28;20167;-70
2024/04/05 01:39:43;;;;;;;3.78;2.30;;;;;;;11.25;85.83;100623.44;5031615;28;20035;-71
2024/04/05 01:42:09;;;;;;;4.20;2.47;;;;;;;11.76;84.63;100692.47;4994905;28;20119;-70
2024/04/05 01:44:34;;;;;;;4.53;2.17;;;;;;;11.58;83.47;100694.41;5017539;28;20048;-70
2024/04/05 01:47:00;;;;;;;4.93;2.13;;;;;;;11.39;84.54;100695.41;5030047;28;20403;-70
2024/04/05 01:49:25;;;;;;;4.88;2.20;;;;;;;11.30;84.97;100686.50;5025607;28;20124;-70
2024/04/05 01:51:51;;;;;;;5.57;2.13;;;;;;;11.30;85.07;100691.69;5030059;28;20610;-70
2024/04/05 01:54:17;;;;;;;3.97;2.10;;;;;;;11.26;85.40;100707.00;5028362;28;20029;-70
2024/04/05 01:56:42;;;;;;;4.63;1.90;;;;;;;11.27;85.48;100699.28;5019871;28;20120;-71
2024/04/05 01:59:08;;;;;;;3.25;2.10;;;;;;;11.17;84.63;100664.47;5029950;28;20053;-70
2024/04/05 02:01:34;;;;;;;6.63;2.40;;;;;;;11.23;84.78;100683.63;5029898;28;20058;-71
2024/04/05 02:03:59;;;;;;;5.50;2.20;;;;;;;11.36;84.09;100713.41;5029691;28;20120;-71
2024/04/05 02:06:25;;;;;;;4.70;2.20;;;;;;;11.43;82.31;100705.94;5030581;28;20061;-70
2024/04/05 02:08:50;;;;;;;6.07;2.15;;;;;;;11.46;81.35;100698.31;5016447;28;20065;-70
2024/04/05 02:11:16;;;;;;;4.93;2.08;;;;;;;11.57;81.80;100708.16;5030402;28;20030;-70
2024/04/05 02:13:41;;;;;;;4.25;2.20;;;;;;;11.54;83.93;100713.19;5029737;28;20032;-70
2024/04/05 02:16:07;;;;;;;5.00;2.20;;;;;;;11.47;84.24;100714.69;5021563;28;20047;-69
2024/04/05 02:18:33;;;;;;;6.57;2.70;;;;;;;11.26;84.58;100686.31;5029329;28;20103;-69
2024/04/05 02:20:58;;;;;;;3.00;1.95;;;;;;;11.32;84.48;100733.94;5014532;28;20041;-70
2024/04/05 02:23:24;;;;;;;4.03;2.90;;;;;;;11.23;86.39;100728.44;5030639;28;20025;-69
2024/04/05 02:25:50;;;;;;;6.22;2.30;;;;;;;11.23;86.49;100728.44;5028989;28;20057;-69
2024/04/05 02:28:16;;;;;;;5.20;2.80;;;;;;;11.04;87.45;100715.63;5029302;28;20385;-69
2024/04/05 02:30:42;;;;;;;4.53;2.20;;;;;;;10.94;87.42;100714.38;5028101;28;20036;-70
2024/04/05 02:33:07;;;;;;;6.78;2.90;;;;;;;10.87;86.54;100720.16;5028051;28;20099;-71
2024/04/05 02:35:33;;;;;;;4.20;2.40;;;;;;;10.91;86.77;100732.34;5025823;28;20024;-71
2024/04/05 02:37:58;;;;;;;6.57;2.80;;;;;;;10.78;87.18;100718.06;5030161;28;20057;-71
2024/04/05 02:40:24;;;;;;;7.63;2.80;;;;;;;9.99;87.62;100617.66;5029366;28;20104;-70
2024/04/05 02:42:50;;;;;;;5.70;2.65;;;;;;;10.45;85.81;100739.09;5026620;28;20033;-70
2024/04/05 02:45:15;;;;;;;3.78;2.50;;;;;;;10.28;85.98;100730.59;5029794;28;20036;-70
2024/04/05 02:47:41;;;;;;;7.30;3.03;;;;;;;10.27;86.17;100713.34;5029511;28;20044;-70
2024/04/05 02:50:06;;;;;;;7.25;3.63;;;;;;;10.29;86.07;100737.53;5026034;28;20480;-70
2024/04/05 02:52:33;;;;;;;12.23;3.13;;;;;;;10.30;87.07;100744.47;5028612;28;20037;-70
2024/04/05 02:55:00;;;;;;;7.68;2.85;;;;;;;10.29;86.59;100733.28;5028605;28;20033;-70
2024/04/05 02:57:25;;;;;;;5.53;2.85;;;;;;;10.29;86.17;100734.97;5026452;28;20037;-70
2024/04/05 02:59:51;;;;;;;3.92;2.50;;;;;;;10.40;86.40;100751.81;5028475;28;20056;-70
2024/04/05 03:02:16;;;;;;;5.38;2.90;;;;;;;10.25;87.05;100743.41;5026291;28;20148;-69
2024/04/05 03:04:42;;;;;;;5.55;3.13;;;;;;;10.23;90.10;100727.84;5028513;28;20030;-69
2024/04/05 03:07:07;;;;;;;5.57;2.88;;;;;;;10.30;90.30;100737.59;5029275;28;20128;-69
2024/04/05 03:09:35;;;;;;;7.55;3.35;;;;;;;10.20;90.95;100746.66;5028719;28;20021;-69
2024/04/05 03:12:02;;;;;;;4.85;2.60;;;;;;;10.16;89.93;100731.84;5024680;28;20455;-70
2024/04/05 03:14:29;;;;;;;8.43;3.40;;;;;;;9.87;89.36;100743.50;5027880;28;20053;-69
2024/04/05 03:16:55;;;;;;;6.10;2.90;;;;;;;9.23;91.32;100745.81;5029678;28;20034;-70
2024/04/05 03:19:20;;;;;;;6.93;3.22;;;;;;;8.90;93.85;100745.94;5029135;28;20117;-69
2024/04/05 03:21:46;;;;;;;5.40;3.17;;;;;;;8.87;96.13;100761.25;5030183;28;20056;-69
2024/04/05 03:24:11;;;;;;;6.35;2.83;;;;;;;8.95;95.67;100750.44;5030716;28;20025;-69
2024/04/05 03:26:38;;;;;;;6.70;3.30;;;;;;;9.10;96.67;100765.72;5029184;28;20103;-70
2024/04/05 03:29:03;;;;;;;13.23;3.47;;;;;;;9.32;96.92;100757.31;5032865;28;20029;-70
2024/04/05 03:31:29;;;;;;;8.82;3.38;;;;;;;9.41;96.20;100768.09;5031005;28;20503;-70
2024/04/05 03:33:55;;;;;;;6.15;3.03;;;;;;;9.50;95.70;100772.78;5023158;28;20045;-70
2024/04/05 03:36:21;;;;;;;5.95;2.72;;;;;;;9.63;96.29;100780.25;5033536;28;20033;-70
2024/04/05 03:38:49;;;;;;;5.65;2.97;;;;;;;9.43;96.51;100768.13;5033402;28;20025;-70
2024/04/05 03:41:15;;;;;;;3.67;2.35;;;;;;;9.65;96.95;100790.63;5029102;28;20108;-71
2024/04/05 03:43:41;;;;;;;6.55;2.88;;;;;;;9.65;96.00;100777.75;5020782;28;20461;-70
2024/04/05 03:46:06;;;;;;;5.85;2.95;;;;;;;9.56;95.85;100773.06;5020323;28;20022;-71
2024/04/05 03:48:32;;;;;;;7.78;2.60;;;;;;;9.59;95.41;100790.34;5020638;28;20030;-70
2024/04/05 03:50:57;;;;;;;5.30;2.97;;;;;;;9.53;95.49;100791.84;5021877;28;20138;-71
2024/04/05 03:53:23;;;;;;;8.63;3.15;;;;;;;9.53;95.39;100798.69;5030253;28;20045;-70
2024/04/05 03:55:56;;;;;;;4.65;2.53;;;;;;;9.54;94.92;100793.63;5027318;28;20030;-70
2024/04/05 03:58:22;;;;;;;4.20;2.70;;;;;;;9.48;94.94;100808.78;5032783;28;20037;-70
2024/04/05 04:00:51;;;;;;;5.03;2.80;;;;;;;9.46;95.19;100799.19;5030008;28;21111;-70
2024/04/05 04:03:17;;;;;;;5.25;2.80;;;;;;;9.17;93.47;100804.75;5032061;28;20038;-71
2024/04/05 04:05:44;;;;;;;5.55;2.63;;;;;;;8.85;93.97;100813.50;4985556;28;20563;-70
2024/04/05 04:08:10;;;;;;;4.53;2.70;;;;;;;8.58;94.60;100819.91;5030322;28;20495;-70
2024/04/05 04:10:36;;;;;;;3.88;2.60;;;;;;;8.65;95.27;100813.38;5030584;28;20048;-70
2024/04/05 04:13:01;;;;;;;10.23;3.50;;;;;;;8.72;97.26;100825.75;5031755;28;20033;-70
2024/04/05 04:15:27;;;;;;;6.63;3.67;;;;;;;8.74;98.97;100820.69;5026493;28;20029;-70
2024/04/05 04:17:52;;;;;;;6.60;2.72;;;;;;;8.77;100.00;100825.09;5032380;28;20049;-70
2024/04/05 04:20:19;;;;;;;6.15;2.80;;;;;;;8.52;100.00;100829.00;5031582;28;20031;-70
2024/04/05 04:22:46;;;;;;;5.35;3.30;;;;;;;8.50;100.00;100810.00;5031585;28;20032;-70
2024/04/05 04:25:11;;;;;;;6.82;3.08;;;;;;;8.61;100.00;100831.16;5031627;28;20483;-70
2024/04/05 04:27:38;;;;;;;7.30;3.45;;;;;;;8.70;100.00;100840.22;5031527;28;20175;-70
2024/04/05 04:30:05;;;;;;;9.88;3.35;;;;;;;8.79;100.00;100824.34;5030943;28;20021;-70
2024/04/05 04:32:33;;;;;;;7.38;3.47;;;;;;;8.61;100.00;100784.81;5030899;28;20026;-70
2024/04/05 04:34:59;;;;;;;5.53;3.17;;;;;;;8.75;99.70;100830.16;5024342;28;20036;-70
2024/04/05 04:37:25;;;;;;;6.07;3.38;;;;;;;8.71;99.72;100839.44;5032611;28;20028;-70
2024/04/05 04:39:51;;;;;;;5.45;3.38;;;;;;;8.86;99.13;100852.19;5034148;28;20026;-70
2024/04/05 04:42:17;;;;;;;7.40;3.95;;;;;;;8.95;98.84;100833.72;5029324;28;20026;-70
2024/04/05 04:44:42;;;;;;;5.95;3.10;;;;;;;8.98;99.53;100831.28;5032507;28;20407;-70
2024/04/05 04:47:08;;;;;;;5.05;3.20;;;;;;;8.99;100.00;100845.06;5032255;28;20033;-70
2024/04/05 04:49:35;;;;;;;8.65;3.28;;;;;;;9.05;100.00;100856.53;5032619;28;20037;-70
2024/04/05 04:52:01;;;;;;;11.25;3.35;;;;;;;9.07;100.00;100854.03;5030112;28;20511;-70
2024/04/05 04:54:28;;;;;;;6.47;2.95;;;;;;;9.15;100.00;100851.88;5032199;28;20029;-70
2024/04/05 04:56:54;;;;;;;16.60;3.83;;;;;;;9.33;100.00;100852.75;5032137;28;20036;-70
2024/04/05 04:59:19;;;;;;;5.03;2.80;;;;;;;9.26;100.00;100818.88;5031974;28;20033;-70
2024/04/05 05:01:45;;;;;;;8.75;3.17;;;;;;;9.58;100.00;100850.44;5030604;28;20464;-70
2024/04/05 05:04:12;;;;;;;5.68;3.13;;;;;;;9.70;99.95;100858.75;5030596;28;20048;-70
2024/04/05 05:06:38;;;;;;;4.40;2.88;;;;;;;9.61;98.77;100837.69;5029723;28;20022;-70
2024/04/05 05:09:04;;;;;;;12.18;3.58;;;;;;;9.30;100.00;100867.19;5031626;28;20029;-70
2024/04/05 05:11:30;;;;;;;4.72;3.03;;;;;;;9.31;100.00;100871.50;5018358;28;20040;-70
2024/04/05 05:13:55;;;;;;;4.70;2.80;;;;;;;9.37;100.00;100861.50;5031985;28;20029;-70
2024/04/05 05:16:23;;;;;;;7.13;3.00;;;;;;;9.54;100.00;100872.63;5031271;28;20025;-70
2024/04/05 05:18:48;;;;;;;6.38;3.30;;;;;;;9.61;100.00;100881.50;5029964;28;20403;-70
2024/04/05 05:21:14;;;;;;;6.53;3.20;;;;;;;9.67;100.00;100876.66;5029607;28;20032;-70
2024/04/05 05:23:40;;;;;;;5.93;3.35;;;;;;;9.82;100.00;100881.63;5030099;28;20066;-71
2024/04/05 05:26:06;;;;;;;6.03;3.15;;;;;;;9.92;100.00;100880.38;5030557;28;20044;-71
2024/04/05 05:28:32;;;;;;;6.72;3.05;;;;;;;9.88;100.00;100833.81;5031533;28;20040;-71
2024/04/05 05:30:58;;;;;;;5.95;3.10;;;;;;;10.23;100.00;100867.19;5031329;28;20029;-71
2024/04/05 05:33:23;;;;;;;5.75;3.22;;;;;;;10.31;100.00;100859.78;5031854;28;20164;-70
2024/04/05 05:35:49;;;;;;;5.57;3.30;;;;;;;10.23;100.00;100827.59;5029447;28;20426;-71
2024/04/05 05:38:15;;;;;;;5.72;3.13;;;;;;;10.42;100.00;100831.88;5029307;28;20108;-70
2024/04/05 05:40:40;;;;;;;8.45;4.03;;;;;;;10.88;100.00;100874.28;5031199;28;20029;-70
2024/04/05 05:43:06;;;;;;;7.05;3.55;;;;;;;11.08;100.00;100872.53;5031388;28;20041;-71
2024/04/05 05:45:31;;;;;;;7.80;3.85;;;;;;;11.29;100.00;100863.09;5030693;28;20029;-71
2024/04/05 05:47:57;;;;;;;11.93;3.33;;;;;;;11.46;99.83;100870.63;5030302;28;20037;-70
2024/04/05 05:50:24;;;;;;;5.53;3.00;;;;;;;11.52;97.57;100868.28;5025881;28;20037;-70
2024/04/05 05:52:50;;;;;;;6.65;3.72;;;;;;;11.72;91.99;100848.34;5027618;28;20037;-70
2024/04/05 05:55:16;;;;;;;9.93;2.95;;;;;;;11.87;91.89;100848.06;5027914;28;20029;-71
2024/04/05 05:57:41;;;;;;;7.80;3.45;;;;;;;12.11;92.32;100858.50;5011249;28;20052;-72
2024/04/05 06:00:09;;;;;;;7.00;3.30;;;;;;;12.26;88.81;100846.91;5026538;28;20064;-71
2024/04/05 06:02:39;;;;;;;6.30;3.80;;;;;;;12.33;87.09;100863.56;5015490;28;20389;-71
2024/04/05 06:05:05;;;;;;;;;;;;;;;12.42;90.04;100864.78;5030394;28;20964;-71
2024/04/05 06:07:31;;;;;;;4.72;3.22;;;;;;;12.50;90.63;100857.28;5043756;28;19913;-73
2024/04/05 06:09:58;;;;;;;9.52;3.40;;;;;;;12.78;87.55;100877.28;4993212;28;20060;-72
2024/04/05 06:12:25;;;;;;;7.07;3.95;;;;;;;12.95;86.63;100871.78;5026989;28;20068;-72
2024/04/05 06:14:55;;;;;;;6.50;3.53;;;;;;;13.02;86.06;100862.47;5010777;28;20484;-71
2024/04/05 06:17:25;;;;;;;5.65;3.25;;;;;;;13.15;86.52;100872.44;5030001;28;20033;-72
2024/04/05 06:19:54;;;;;;;5.43;3.22;;;;;;;13.42;86.71;100874.16;5030761;28;20030;-71
2024/04/05 06:22:21;;;;;;;;;;;;;;;13.65;88.24;100876.63;5030693;28;20025;-72
2024/04/05 06:24:51;;;;;;;6.32;3.72;;;;;;;13.64;87.54;100885.25;5030595;28;19917;-71
2024/04/05 06:27:17;;;;;;;7.90;3.35;;;;;;;13.62;90.29;100884.31;5030304;28;20087;-72
2024/04/05 06:29:46;;;;;;;6.32;3.28;;;;;;;13.79;88.36;100885.69;5025964;28;20026;-71
2024/04/05 06:32:12;;;;;;;;;;;;;;;13.93;88.72;100880.06;5028902;28;20029;-74
2024/04/05 06:34:41;;;;;;;5.78;3.15;;;;;;;14.03;86.84;100859.59;5028175;28;20449;-73
2024/04/05 06:37:06;;;;;;;5.75;2.80;;;;;;;14.33;81.30;100870.81;5030003;28;20120;-72
2024/04/05 06:39:32;;;;;;;5.88;2.90;;;;;;;14.50;81.99;100866.94;5029780;28;20100;-73
2024/04/05 06:41:58;;;;;;;8.85;3.22;;;;;;;14.62;82.43;100871.63;5031337;28;20024;-74
2024/04/05 06:44:23;;;;;;;5.07;3.15;;;;;;;14.87;83.97;100885.31;5034235;28;20075;-74
2024/04/05 06:46:51;;;;;;;11.52;2.92;;;;;;;15.00;80.42;100895.19;5028798;28;20112;-74
2024/04/05 06:49:17;;;;;;;6.25;2.63;;;;;;;15.15;76.97;100886.00;5010304;28;20469;-73
2024/04/05 06:51:43;;;;;;;4.75;2.85;;;;;;;15.36;76.51;100885.63;5023881;28;20022;-73
2024/04/05 06:54:08;;;;;;;8.27;2.22;;;;;;;15.33;74.65;100847.41;5027202;28;20448;-74
2024/04/05 06:56:34;;;;;;;5.72;2.30;;;;;;;15.76;71.58;100880.47;5026826;28;20476;-72
2024/04/05 06:58:59;;;;;;;5.40;2.30;;;;;;;15.73;72.80;100862.19;5026786;28;20416;-75
2024/04/05 07:01:25;;;;;;;4.68;2.05;;;;;;;15.72;68.27;100870.84;5014450;28;20101;-74
2024/04/05 07:03:51;;;;;;;5.05;1.80;;;;;;;15.64;67.80;100857.66;5026847;28;20034;-72
2024/04/05 07:06:16;;;;;;;5.22;1.85;;;;;;;15.68;64.43;100875.97;5013465;28;20068;-72
2024/04/05 07:08:42;;;;;;;10.52;2.53;;;;;;;15.62;64.42;100870.63;5028035;28;20416;-73
2024/04/05 07:11:09;;;;;;;5.05;1.58;;;;;;;15.92;62.74;100869.56;5027355;28;20460;-74
2024/04/05 07:13:35;;;;;;;5.25;2.03;;;;;;;16.37;60.48;100878.31;5027954;28;20029;-73
2024/04/05 07:16:01;;;;;;;4.47;1.85;;;;;;;16.42;61.30;100887.09;5026031;28;20047;-73
2024/04/05 07:18:27;;;;;;;3.85;1.95;;;;;;;16.50;60.08;100888.13;5024917;28;20041;-73
2024/04/05 07:20:54;;;;;;;4.53;1.90;;;;;;;16.16;61.46;100844.88;5024856;28;20025;-73
2024/04/05 07:23:20;;;;;;;6.05;2.10;;;;;;;16.22;62.42;100891.03;5030315;28;20443;-73
2024/04/05 07:25:46;;;;;;;2.47;1.30;;;;;;;16.26;61.77;100885.03;5029419;28;20022;-73
2024/04/05 07:28:11;;;;;;;2.35;1.35;;;;;;;16.36;61.27;100883.50;5029423;28;20037;-73
2024/04/05 07:30:38;;;;;;;9.73;1.60;;;;;;;16.49;61.09;100896.78;5029622;28;20542;-71
2024/04/05 07:33:03;;;;;;;3.15;1.50;;;;;;;16.28;60.28;100863.38;5029437;28;20116;-73
2024/04/05 07:35:29;;;;;;;3.78;1.30;;;;;;;16.49;59.95;100877.69;5027856;28;20022;-72
2024/04/05 07:37:56;;;;;;;3.90;1.30;;;;;;;16.60;61.58;100891.78;5028948;28;20384;-72
2024/04/05 07:40:23;;;;;;;7.22;1.80;;;;;;;16.78;58.02;100892.97;5011734;28;20396;-73
2024/04/05 07:42:53;;;;;;;3.08;1.60;;;;;;;16.86;57.29;100900.94;5029739;28;20104;-73
2024/04/05 07:45:20;;;;;;;4.45;1.48;;;;;;;16.94;56.57;100895.03;5027441;28;20124;-73
2024/04/05 07:47:49;;;;;;;3.47;1.40;;;;;;;16.92;57.94;100891.53;5027610;28;20095;-74
2024/04/05 07:50:18;;;;;;;2.97;1.58;;;;;;;17.02;56.82;100889.09;5029398;28;20033;-74
2024/04/05 07:52:44;;;;;;;3.85;1.55;;;;;;;16.92;56.96;100862.84;5026780;28;20030;-73
2024/04/05 07:55:10;;;;;;;6.07;1.48;;;;;;;16.97;57.59;100850.78;5028751;28;20044;-73
2024/04/05 07:57:39;;;;;;;6.22;1.63;;;;;;;17.43;57.42;100902.81;5028617;28;20100;-72
2024/04/05 08:00:07;;;;;;;5.25;1.67;;;;;;;17.64;56.31;100901.38;5027969;28;20064;-72
2024/04/05 08:02:35;;;;;;;2.40;1.17;;;;;;;17.78;58.70;100894.63;5028451;28;20419;-73
2024/04/05 08:05:00;;;;;;;2.78;1.25;;;;;;;17.91;53.84;100895.66;5026684;28;20032;-73
2024/04/05 08:07:26;;;;;;;3.30;1.20;;;;;;;18.03;53.47;100901.94;5028676;28;20412;-74
2024/04/05 08:09:53;;;;;;;4.40;1.48;;;;;;;18.26;53.14;100902.25;5030658;28;20025;-73
2024/04/05 08:12:20;;;;;;;3.42;1.10;;;;;;;18.34;52.07;100900.59;5030306;28;20557;-73
2024/04/05 08:14:45;;;;;;;2.67;0.90;;;;;;;18.28;50.80;100895.31;5033183;28;20139;-72
2024/04/05 08:17:13;;;;;;;2.90;1.10;;;;;;;18.34;52.02;100881.44;5031301;28;20464;-72
2024/04/05 08:19:38;;;;;;;1.98;1.20;;;;;;;18.45;52.85;100897.25;5032113;28;20499;-72
2024/04/05 08:22:06;;;;;;;2.53;0.90;;;;;;;18.65;49.61;100887.00;5030105;28;20515;-74
2024/04/05 08:24:34;;;;;;;2.65;0.80;;;;;;;18.63;51.26;100884.38;5032238;28;20114;-74
2024/04/05 08:27:00;;;;;;;1.52;0.80;;;;;;;18.84;47.07;100890.66;5029535;28;20041;-71
2024/04/05 08:29:27;;;;;;;1.02;0.90;;;;;;;18.99;47.17;100887.34;5029340;28;20033;-73
2024/04/05 08:31:53;;;;;;;4.32;1.60;;;;;;;19.28;47.15;100897.19;5029590;28;21066;-72
2024/04/05 08:34:22;;;;;;;4.10;0.95;;;;;;;19.31;46.74;100891.97;5029122;28;20068;-71
2024/04/05 08:36:51;;;;;;;3.97;1.23;;;;;;;19.34;46.22;100894.59;5024763;28;20076;-74
2024/04/05 08:39:18;;;;;;;1.90;1.05;;;;;;;19.43;45.07;100879.00;5026806;28;20030;-72
2024/04/05 08:41:46;;;;;;;1.67;0.80;;;;;;;19.50;46.48;100886.03;5007128;28;20040;-74
2024/04/05 08:44:15;;;;;;;2.25;1.00;;;;;;;19.58;44.42;100882.56;5029970;28;20052;-74
2024/04/05 08:46:41;;;;;;;1.77;0.90;;;;;;;19.63;44.47;100871.25;5032180;28;20040;-74
2024/04/05 08:49:07;;;;;;;2.25;0.80;;;;;;;19.55;44.16;100876.44;5030305;28;20087;-75
2024/04/05 08:51:39;;;;;;;4.38;1.00;;;;;;;19.51;44.58;100871.19;5028456;28;20041;-74
2024/04/05 08:54:07;;;;;;;1.63;1.00;;;;;;;19.86;43.19;100879.28;5026565;28;20029;-75
2024/04/05 08:56:34;;;;;;;1.92;0.90;;;;;;;20.09;42.77;100883.75;5030934;28;20037;-72
2024/04/05 08:59:02;;;;;;;2.30;0.90;;;;;;;20.09;43.27;100883.75;5031081;28;20116;-71
2024/04/05 09:01:28;;;;;;;1.02;0.80;;;;;;;19.88;42.67;100864.44;5020251;28;20491;-72
2024/04/05 09:03:54;;;;;;;2.72;1.00;;;;;;;19.83;42.53;100870.53;5030296;28;20072;-76
2024/04/05 09:06:20;;;;;;;1.88;0.90;;;;;;;19.91;43.57;100873.19;5030036;28;20070;-72
2024/04/05 09:08:49;;;;;;;1.73;0.70;;;;;;;19.89;42.26;100870.56;5033636;28;20461;-76
2024/04/05 09:11:25;;;;;;;1.63;0.80;;;;;;;19.96;43.30;100866.22;4994238;28;20045;-77
2024/04/05 09:14:04;;;;;;;1.80;1.40;;;;;;;20.03;42.33;100865.38;5012786;28;20061;-75
2024/04/05 09:16:31;;;;;;;2.42;0.80;;;;;;;19.98;42.38;100862.72;5015610;28;20029;-76
2024/04/05 09:19:11;;;;;;;1.08;0.90;;;;;;;19.94;43.30;100846.97;5009415;28;20045;-76
2024/04/05 09:21:46;;;;;;;4.85;2.30;;;;;;;19.96;41.81;100835.66;5013260;28;20042;-74
2024/04/05 09:24:12;;;;;;;1.77;0.85;;;;;;;19.80;42.07;100810.22;5008188;28;20561;-73
2024/04/05 09:26:38;;;;;;;1.35;0.75;;;;;;;20.19;43.23;100866.31;5009046;28;20030;-73
2024/04/05 09:29:06;;;;;;;12.45;0.93;;;;;;;20.26;44.81;100851.47;5025630;28;20125;-79
2024/04/05 09:31:32;;;;;;;0.52;0.50;;;;;;;20.20;43.15;100860.22;5008279;28;20587;-71
2024/04/05 09:34:09;;;;;;;0.90;0.60;;;;;;;20.33;44.09;100834.91;5009110;28;20128;-75
2024/04/05 09:36:38;;;;;;;1.42;0.60;;;;;;;20.73;43.99;100855.97;5008484;28;20049;-80
2024/04/05 09:39:08;;;;;;;2.60;0.90;;;;;;;20.98;42.30;100856.00;5008949;28;20416;-76
2024/04/05 09:41:35;;;;;;;1.67;0.73;;;;;;;21.13;41.78;100853.38;5008140;28;20041;-74
2024/04/05 09:44:03;;;;;;;1.95;0.65;;;;;;;21.07;42.34;100842.88;5008948;28;20038;-76
2024/04/05 09:46:29;;;;;;;2.30;0.90;;;;;;;21.14;43.29;100844.59;5007506;28;20113;-71
2024/04/05 09:48:55;;;;;;;3.00;0.73;;;;;;;20.85;40.86;100839.38;5008644;28;20556;-72
2024/04/05 09:51:26;;;;;;;3.85;0.80;;;;;;;20.79;42.14;100842.88;5008999;28;20074;-75
2024/04/05 09:53:54;;;;;;;1.77;0.90;;;;;;;20.79;40.81;100824.50;5012621;28;20113;-73
2024/04/05 09:56:24;;;;;;;1.15;0.75;;;;;;;20.76;40.46;100824.50;5019622;28;20500;-73
2024/04/05 09:58:53;;;;;;;2.13;0.85;;;;;;;20.51;41.01;100824.44;5030068;28;20040;-71
2024/04/05 10:01:19;;;;;;;1.83;1.13;;;;;;;20.75;41.35;100850.72;5030960;28;20043;-72
2024/04/05 10:03:46;;;;;;;4.78;1.10;;;;;;;20.87;41.43;100852.50;5030666;28;20025;-72
2024/04/05 10:06:17;;;;;;;2.72;0.90;;;;;;;20.76;42.94;100845.50;5031252;28;20025;-74
2024/04/05 10:08:43;;;;;;;0.65;0.65;;;;;;;20.78;42.07;100851.59;5012827;28;20464;-76
2024/04/05 10:11:13;;;;;;;9.45;1.30;;;;;;;20.60;41.78;100814.81;5029654;28;20087;-74
2024/04/05 10:13:39;;;;;;;2.72;1.00;;;;;;;20.70;41.81;100845.47;5022519;28;20701;-74
2024/04/05 10:16:05;;;;;;;1.77;0.70;;;;;;;20.47;41.77;100830.56;5029207;28;20695;-75
2024/04/05 10:18:39;;;;;;;2.08;0.93;;;;;;;20.66;45.52;100838.44;5026514;28;20029;-75
2024/04/05 10:21:13;;;;;;;2.83;0.90;;;;;;;20.27;42.38;100824.41;5022378;28;20026;-76
2024/04/05 10:23:44;;;;;;;1.00;0.70;;;;;;;20.64;42.27;100854.19;5030042;28;20111;-76
2024/04/05 10:26:13;;;;;;;1.50;1.00;;;;;;;20.69;42.54;100847.19;5030565;28;20029;-76
2024/04/05 10:28:40;;;;;;;5.63;1.10;;;;;;;20.70;43.34;100840.22;5012798;28;20139;-75
2024/04/05 10:31:12;;;;;;;6.10;1.27;;;;;;;20.96;41.08;100842.88;5024081;28;20125;-75
2024/04/05 10:33:38;;;;;;;2.42;0.90;;;;;;;21.32;43.63;100848.09;5027279;28;20045;-76
2024/04/05 10:36:05;;;;;;;2.10;1.00;;;;;;;21.48;42.69;100823.56;5030602;28;20667;-78
2024/04/05 10:38:31;;;;;;;2.58;1.00;;;;;;;21.66;42.07;100837.56;5030042;28;20506;-73
2024/04/05 10:41:00;;;;;;;2.08;0.80;;;;;;;21.64;42.09;100810.41;5030361;28;20030;-79
2024/04/05 10:43:26;;;;;;;;;;;;;;;21.89;39.72;100831.34;5011669;28;20527;-76
2024/04/05 10:45:57;;;;;;;2.00;0.70;;;;;;;21.73;42.66;100806.88;5030518;28;19919;-74
2024/04/05 10:48:23;;;;;;;0.70;0.70;;;;;;;21.88;41.59;100826.97;5045677;28;20055;-73
2024/04/05 10:50:49;;;;;;;1.45;0.60;;;;;;;21.55;40.43;100802.53;5025019;28;20492;-74
2024/04/05 10:53:19;;;;;;;3.55;0.70;;;;;;;21.52;40.85;100828.81;4991800;28;20446;-74
2024/04/05 10:55:45;;;;;;;2.50;0.88;;;;;;;21.34;41.25;100822.72;4983211;28;20047;-74
2024/04/05 10:58:12;;;;;;;2.05;0.68;;;;;;;21.30;40.79;100816.59;4985590;28;20058;-75
2024/04/05 11:00:38;;;;;;;4.43;0.52;;;;;;;21.21;37.80;100821.88;4993285;28;20086;-70
2024/04/05 11:03:13;;;;;;;4.70;0.75;;;;;;;21.25;37.83;100814.88;4988008;28;20039;-74
2024/04/05 11:05:39;;;;;;;2.05;0.70;;;;;;;20.79;37.67;100718.69;4991302;28;20052;-80
2024/04/05 11:08:08;;;;;;;4.22;0.70;;;;;;;21.34;38.79;100826.19;4988576;28;20042;-74
2024/04/05 11:10:34;;;;;;;2.05;0.40;;;;;;;21.24;37.10;100811.34;4988448;28;20034;-73
2024/04/05 11:13:11;;;;;;;4.00;0.52;;;;;;;21.29;37.30;100814.84;4988683;28;20532;-73
2024/04/05 11:15:37;;;;;;;1.48;0.57;;;;;;;21.36;38.68;100809.56;4985467;28;20034;-76
2024/04/05 11:18:07;;;;;;;1.08;0.52;;;;;;;21.34;38.88;100820.09;4987835;28;20041;-76
2024/04/05 11:20:39;;;;;;;0.57;0.57;;;;;;;21.37;38.85;100783.31;4991128;28;20044;-74
2024/04/05 11:23:06;;;;;;;1.05;0.73;;;;;;;21.58;37.97;100820.94;4989056;28;20029;-75
2024/04/05 11:25:33;;;;;;;2.03;0.63;;;;;;;21.29;38.28;100824.47;4988565;28;20064;-73